createdAt,value
2017-09-30T00:00:53.323Z,20.35
2017-09-30T00:01:55.820Z,21.80
2017-09-30T00:02:58.278Z,21.08
2017-09-30T00:04:00.760Z,20.30
2017-09-30T00:05:03.275Z,20.85
2017-09-30T00:06:05.745Z,22.30
2017-09-30T00:07:08.243Z,20.90
2017-09-30T00:08:11.502Z,20.27
2017-09-30T00:09:14.798Z,21.58
2017-09-30T00:10:17.291Z,21.60
2017-09-30T00:11:19.854Z,21.90
2017-09-30T00:12:22.377Z,21.55
2017-09-30T00:13:25.019Z,19.70
2017-09-30T00:14:27.511Z,21.10
2017-09-30T00:15:30.212Z,21.52
2017-09-30T00:16:33.484Z,21.45
2017-09-30T00:17:36.017Z,20.88
2017-09-30T00:18:38.567Z,22.02
2017-09-30T00:19:41.806Z,22.17
2017-09-30T00:20:44.490Z,21.33
2017-09-30T00:21:46.973Z,22.50
2017-09-30T00:22:49.487Z,21.40
2017-09-30T00:23:51.952Z,22.13
2017-09-30T00:24:55.210Z,20.62
2017-09-30T00:25:57.700Z,21.25
2017-09-30T00:27:00.183Z,22.25
2017-09-30T00:28:02.782Z,20.75
2017-09-30T00:29:05.260Z,23.95
2017-09-30T00:30:07.730Z,20.90
2017-09-30T00:31:10.227Z,22.27
2017-09-30T00:32:12.758Z,22.00
2017-09-30T00:33:16.000Z,22.13
2017-09-30T00:34:18.503Z,21.85
2017-09-30T00:35:21.277Z,22.17
2017-09-30T00:36:24.525Z,21.85
2017-09-30T00:37:27.019Z,22.13
2017-09-30T00:38:29.511Z,22.48
2017-09-30T00:39:31.970Z,22.95
2017-09-30T00:40:34.476Z,22.15
2017-09-30T00:41:36.933Z,22.20
2017-09-30T00:42:40.214Z,23.73
2017-09-30T00:43:42.675Z,22.98
2017-09-30T00:44:45.158Z,22.02
2017-09-30T00:45:47.640Z,23.02
2017-09-30T00:46:50.893Z,23.40
2017-09-30T00:47:54.162Z,22.45
2017-09-30T00:48:56.664Z,22.67
2017-09-30T00:49:59.894Z,23.30
2017-09-30T00:51:03.129Z,23.45
2017-09-30T00:52:05.587Z,23.40
2017-09-30T00:53:08.057Z,22.27
2017-09-30T00:54:10.542Z,22.33
2017-09-30T00:55:13.023Z,22.98
2017-09-30T00:56:15.498Z,23.23
2017-09-30T00:57:18.602Z,23.33
2017-09-30T00:58:21.830Z,24.08
2017-09-30T00:59:24.449Z,24.05
2017-09-30T01:00:27.714Z,23.85
2017-09-30T01:01:31.086Z,23.58
2017-09-30T01:02:33.586Z,23.25
2017-09-30T01:03:36.806Z,24.30
2017-09-30T01:04:39.270Z,23.55
2017-09-30T01:05:41.746Z,24.02
2017-09-30T01:06:44.371Z,23.33
2017-09-30T01:07:46.866Z,22.75
2017-09-30T01:08:49.351Z,23.40
2017-09-30T01:09:52.586Z,23.95
2017-09-30T01:10:55.095Z,22.40
2017-09-30T01:11:57.870Z,23.70
2017-09-30T01:13:01.149Z,23.67
2017-09-30T01:14:03.610Z,24.80
2017-09-30T01:15:06.185Z,24.98
2017-09-30T01:16:08.682Z,24.45
2017-09-30T01:17:11.942Z,25.05
2017-09-30T01:18:14.466Z,24.95
2017-09-30T01:19:16.996Z,26.40
2017-09-30T01:20:19.466Z,26.25
2017-09-30T01:21:21.972Z,24.73
2017-09-30T01:22:24.523Z,24.40
2017-09-30T01:23:27.090Z,23.70
2017-09-30T01:24:29.615Z,24.77
2017-09-30T01:25:32.119Z,24.58
2017-09-30T01:26:35.343Z,24.20
2017-09-30T01:27:37.798Z,23.35
2017-09-30T01:28:41.534Z,25.30
2017-09-30T01:29:44.056Z,25.23
2017-09-30T01:30:51.447Z,23.50
2017-09-30T01:31:53.944Z,26.40
2017-09-30T01:32:57.166Z,25.90
2017-09-30T01:34:00.440Z,25.08
2017-09-30T01:35:02.929Z,25.23
2017-09-30T01:36:05.434Z,24.17
2017-09-30T01:37:07.896Z,24.58
2017-09-30T01:38:11.158Z,25.70
2017-09-30T01:39:13.682Z,24.52
2017-09-30T01:40:16.196Z,24.40
2017-09-30T01:41:19.464Z,25.30
2017-09-30T01:42:22.050Z,25.52
2017-09-30T01:43:24.524Z,24.42
2017-09-30T01:44:26.991Z,25.52
2017-09-30T01:45:29.467Z,26.12
2017-09-30T01:46:31.950Z,24.95
2017-09-30T01:47:35.216Z,26.45
2017-09-30T01:48:37.677Z,26.37
2017-09-30T01:49:40.157Z,26.15
2017-09-30T01:50:43.399Z,26.60
2017-09-30T01:51:46.760Z,25.98
2017-09-30T01:52:49.286Z,26.12
2017-09-30T01:53:51.760Z,26.95
2017-09-30T01:54:54.214Z,25.50
2017-09-30T01:55:57.439Z,25.23
2017-09-30T01:56:59.939Z,25.37
2017-09-30T01:58:02.418Z,26.10
2017-09-30T01:59:05.645Z,24.42
2017-09-30T02:00:08.881Z,25.88
2017-09-30T02:01:14.090Z,25.60
2017-09-30T02:02:17.349Z,26.40
2017-09-30T02:03:19.822Z,26.30
2017-09-30T02:04:22.273Z,25.92
2017-09-30T02:05:25.499Z,26.00
2017-09-30T02:06:28.738Z,26.40
2017-09-30T02:07:32.034Z,26.50
2017-09-30T02:08:34.542Z,26.15
2017-09-30T02:09:37.006Z,26.20
2017-09-30T02:10:39.521Z,27.45
2017-09-30T02:11:41.997Z,25.90
2017-09-30T02:12:45.258Z,26.33
2017-09-30T02:13:47.723Z,26.95
2017-09-30T02:14:50.235Z,28.27
2017-09-30T02:15:52.694Z,27.15
2017-09-30T02:16:56.248Z,26.00
2017-09-30T02:17:58.715Z,26.87
2017-09-30T02:19:01.182Z,27.05
2017-09-30T02:20:03.677Z,26.50
2017-09-30T02:21:06.154Z,27.48
2017-09-30T02:22:08.629Z,26.85
2017-09-30T02:23:11.127Z,26.73
2017-09-30T02:24:13.597Z,27.20
2017-09-30T02:25:16.075Z,27.58
2017-09-30T02:26:19.343Z,28.20
2017-09-30T02:27:21.821Z,27.02
2017-09-30T02:28:25.059Z,28.12
2017-09-30T02:29:27.518Z,27.45
2017-09-30T02:30:30.013Z,27.90
2017-09-30T02:31:33.274Z,27.92
2017-09-30T02:32:35.812Z,27.33
2017-09-30T02:33:38.288Z,28.40
2017-09-30T02:34:40.850Z,29.30
2017-09-30T02:35:44.117Z,28.30
2017-09-30T02:36:46.568Z,28.70
2017-09-30T02:37:49.147Z,27.75
2017-09-30T02:38:52.378Z,27.45
2017-09-30T02:39:55.648Z,27.58
2017-09-30T02:40:59.088Z,29.42
2017-09-30T02:42:01.550Z,27.55
2017-09-30T02:43:04.052Z,28.40
2017-09-30T02:44:06.584Z,29.67
2017-09-30T02:45:09.094Z,28.10
2017-09-30T02:46:11.553Z,27.45
2017-09-30T02:47:14.032Z,29.20
2017-09-30T02:48:16.501Z,28.75
2017-09-30T02:49:18.966Z,28.60
2017-09-30T02:50:22.317Z,28.48
2017-09-30T02:51:25.558Z,28.00
2017-09-30T02:52:28.795Z,28.58
2017-09-30T02:53:32.022Z,29.30
2017-09-30T02:54:34.480Z,29.15
2017-09-30T02:55:36.982Z,29.98
2017-09-30T02:56:40.219Z,30.05
2017-09-30T02:57:43.490Z,30.52
2017-09-30T02:58:45.998Z,29.63
2017-09-30T02:59:49.235Z,29.98
2017-09-30T03:00:52.502Z,29.80
2017-09-30T03:01:54.972Z,29.90
2017-09-30T03:02:57.441Z,29.50
2017-09-30T03:04:00.679Z,28.40
2017-09-30T03:05:03.955Z,28.75
2017-09-30T03:06:06.456Z,29.02
2017-09-30T03:07:08.921Z,29.40
2017-09-30T03:08:11.401Z,29.58
2017-09-30T03:09:14.696Z,30.15
2017-09-30T03:10:17.179Z,30.67
2017-09-30T03:11:19.641Z,31.10
2017-09-30T03:12:22.120Z,30.35
2017-09-30T03:13:25.351Z,29.77
2017-09-30T03:14:28.622Z,30.65
2017-09-30T03:15:31.081Z,30.45
2017-09-30T03:16:33.557Z,30.02
2017-09-30T03:17:36.240Z,29.83
2017-09-30T03:18:38.687Z,30.83
2017-09-30T03:19:41.934Z,31.58
2017-09-30T03:20:45.183Z,29.60
2017-09-30T03:21:48.407Z,30.15
2017-09-30T03:22:51.046Z,30.62
2017-09-30T03:23:54.541Z,29.90
2017-09-30T03:24:57.087Z,28.77
2017-09-30T03:25:59.563Z,31.83
2017-09-30T03:27:02.080Z,30.17
2017-09-30T03:28:05.330Z,30.98
2017-09-30T03:29:08.566Z,31.40
2017-09-30T03:30:11.803Z,31.85
2017-09-30T03:31:15.053Z,32.20
2017-09-30T03:32:18.318Z,31.58
2017-09-30T03:33:20.826Z,30.23
2017-09-30T03:34:24.058Z,31.90
2017-09-30T03:35:27.291Z,33.15
2017-09-30T03:36:30.523Z,33.00
2017-09-30T03:37:33.773Z,31.33
2017-09-30T03:38:36.999Z,32.30
2017-09-30T03:39:39.556Z,32.60
2017-09-30T03:40:42.786Z,31.90
2017-09-30T03:41:46.148Z,31.77
2017-09-30T03:42:49.590Z,31.80
2017-09-30T03:43:52.816Z,33.40
2017-09-30T03:44:55.278Z,32.30
2017-09-30T03:45:57.762Z,32.38
2017-09-30T03:47:00.314Z,32.63
2017-09-30T03:48:02.847Z,33.13
2017-09-30T03:49:05.320Z,32.50
2017-09-30T03:50:07.774Z,32.40
2017-09-30T03:51:11.055Z,32.28
2017-09-30T03:52:13.525Z,34.22
2017-09-30T03:53:15.990Z,34.05
2017-09-30T03:54:18.434Z,33.67
2017-09-30T03:55:20.904Z,32.75
2017-09-30T03:56:23.391Z,34.10
2017-09-30T03:57:25.874Z,32.00
2017-09-30T03:58:29.942Z,33.65
2017-09-30T03:59:32.404Z,33.13
2017-09-30T04:00:35.044Z,33.10
2017-09-30T04:01:37.626Z,32.50
2017-09-30T04:02:40.446Z,32.10
2017-09-30T04:03:43.696Z,32.83
2017-09-30T04:04:47.605Z,33.10
2017-09-30T04:05:50.059Z,32.17
2017-09-30T04:06:53.327Z,32.70
2017-09-30T04:07:55.792Z,32.78
2017-09-30T04:08:58.247Z,32.33
2017-09-30T04:10:01.134Z,33.42
2017-09-30T04:11:03.591Z,32.97
2017-09-30T04:12:06.109Z,34.45
2017-09-30T04:13:08.705Z,32.88
2017-09-30T04:14:11.170Z,33.35
2017-09-30T04:15:13.638Z,33.63
2017-09-30T04:16:16.155Z,32.70
2017-09-30T04:17:19.435Z,33.72
2017-09-30T04:18:21.887Z,33.38
2017-09-30T04:19:24.428Z,34.90
2017-09-30T04:20:26.882Z,34.17
2017-09-30T04:21:29.343Z,33.33
2017-09-30T04:22:31.853Z,32.65
2017-09-30T04:23:34.365Z,34.40
2017-09-30T04:24:37.187Z,33.42
2017-09-30T04:25:39.651Z,32.88
2017-09-30T04:26:42.118Z,31.73
2017-09-30T04:27:45.388Z,33.03
2017-09-30T04:28:47.847Z,33.85
2017-09-30T04:29:50.355Z,35.05
2017-09-30T04:30:52.871Z,34.53
2017-09-30T04:31:55.333Z,33.85
2017-09-30T04:32:59.406Z,34.47
2017-09-30T04:34:01.872Z,34.33
2017-09-30T04:35:04.355Z,34.75
2017-09-30T04:36:06.908Z,35.95
2017-09-30T04:37:10.126Z,33.15
2017-09-30T04:38:12.786Z,36.25
2017-09-30T04:39:15.299Z,36.17
2017-09-30T04:40:18.527Z,35.33
2017-09-30T04:41:20.988Z,35.45
2017-09-30T04:42:23.470Z,35.28
2017-09-30T04:43:25.999Z,35.78
2017-09-30T04:44:28.596Z,34.80
2017-09-30T04:45:31.104Z,36.70
2017-09-30T04:46:33.587Z,34.80
2017-09-30T04:47:36.890Z,36.33
2017-09-30T04:48:39.382Z,36.90
2017-09-30T04:49:41.846Z,35.35
2017-09-30T04:50:44.404Z,34.80
2017-09-30T04:51:47.165Z,35.15
2017-09-30T04:52:50.135Z,35.30
2017-09-30T04:53:52.629Z,36.05
2017-09-30T04:54:55.110Z,33.55
2017-09-30T04:55:57.629Z,36.70
2017-09-30T04:57:00.723Z,34.80
2017-09-30T04:58:03.170Z,35.15
2017-09-30T04:59:05.683Z,37.00
2017-09-30T05:00:08.138Z,36.47
2017-09-30T05:01:10.609Z,36.95
2017-09-30T05:02:13.143Z,36.22
2017-09-30T05:03:15.659Z,35.58
2017-09-30T05:04:18.141Z,35.60
2017-09-30T05:05:20.609Z,36.40
2017-09-30T05:06:23.070Z,36.00
2017-09-30T05:07:25.534Z,35.03
2017-09-30T05:08:28.767Z,37.05
2017-09-30T05:09:31.276Z,37.65
2017-09-30T05:10:33.736Z,37.38
2017-09-30T05:11:36.994Z,37.35
2017-09-30T05:12:40.211Z,36.40
2017-09-30T05:13:42.756Z,36.10
2017-09-30T05:14:46.815Z,35.25
2017-09-30T05:15:50.071Z,35.78
2017-09-30T05:16:52.528Z,35.38
2017-09-30T05:17:54.990Z,35.75
2017-09-30T05:18:58.257Z,34.63
2017-09-30T05:20:01.551Z,35.85
2017-09-30T05:21:04.414Z,35.42
2017-09-30T05:22:07.630Z,37.10
2017-09-30T05:23:10.091Z,36.97
2017-09-30T05:24:13.423Z,36.28
2017-09-30T05:25:15.960Z,36.28
2017-09-30T05:26:19.195Z,35.08
2017-09-30T05:27:21.785Z,34.45
2017-09-30T05:28:24.542Z,36.72
2017-09-30T05:29:27.817Z,37.20
2017-09-30T05:30:30.363Z,35.80
2017-09-30T05:31:32.819Z,35.22
2017-09-30T05:32:36.051Z,34.40
2017-09-30T05:33:38.504Z,35.65
2017-09-30T05:34:40.958Z,34.70
2017-09-30T05:35:43.458Z,36.53
2017-09-30T05:36:46.681Z,35.42
2017-09-30T05:37:50.102Z,36.53
2017-09-30T05:38:52.558Z,36.95
2017-09-30T05:39:55.022Z,36.00
2017-09-30T05:40:57.508Z,36.78
2017-09-30T05:41:59.970Z,37.22
2017-09-30T05:43:03.230Z,36.30
2017-09-30T05:44:05.694Z,34.25
2017-09-30T05:45:08.247Z,34.53
2017-09-30T05:46:11.511Z,36.33
2017-09-30T05:47:13.971Z,35.83
2017-09-30T05:48:16.436Z,33.83
2017-09-30T05:49:18.911Z,36.58
2017-09-30T05:50:21.396Z,34.60
2017-09-30T05:51:24.648Z,35.75
2017-09-30T05:52:27.172Z,35.80
2017-09-30T05:53:29.710Z,33.40
2017-09-30T05:54:32.190Z,34.88
2017-09-30T05:55:34.823Z,33.58
2017-09-30T05:56:37.668Z,34.60
2017-09-30T05:57:40.980Z,33.83
2017-09-30T05:58:43.467Z,34.28
2017-09-30T05:59:45.993Z,34.80
2017-09-30T06:00:48.452Z,35.28
2017-09-30T06:01:51.227Z,33.05
2017-09-30T06:02:54.463Z,34.47
2017-09-30T06:03:57.709Z,34.13
2017-09-30T06:05:00.937Z,34.78
2017-09-30T06:06:04.238Z,32.92
2017-09-30T06:07:06.864Z,31.70
2017-09-30T06:08:09.348Z,32.63
2017-09-30T06:09:12.572Z,31.02
2017-09-30T06:10:15.018Z,32.70
2017-09-30T06:11:18.265Z,33.03
2017-09-30T06:12:20.791Z,32.00
2017-09-30T06:13:23.346Z,32.05
2017-09-30T06:14:25.819Z,31.87
2017-09-30T06:15:29.098Z,32.63
2017-09-30T06:16:31.573Z,31.85
2017-09-30T06:17:34.076Z,32.35
2017-09-30T06:18:36.540Z,31.30
2017-09-30T06:19:39.882Z,30.55
2017-09-30T06:20:43.123Z,30.85
2017-09-30T06:21:45.578Z,33.38
2017-09-30T06:22:48.082Z,32.15
2017-09-30T06:23:50.582Z,30.23
2017-09-30T06:24:53.919Z,31.15
2017-09-30T06:25:57.544Z,31.50
2017-09-30T06:27:00.069Z,32.35
2017-09-30T06:28:04.225Z,32.10
2017-09-30T06:29:08.037Z,30.05
2017-09-30T06:30:11.239Z,31.60
2017-09-30T06:31:13.737Z,29.52
2017-09-30T06:32:16.223Z,31.33
2017-09-30T06:33:18.762Z,31.25
2017-09-30T06:34:21.996Z,30.37
2017-09-30T06:35:25.639Z,30.02
2017-09-30T06:36:28.622Z,30.12
2017-09-30T06:37:31.090Z,30.95
2017-09-30T06:38:35.551Z,30.52
2017-09-30T06:39:38.027Z,30.58
2017-09-30T06:40:49.424Z,30.25
2017-09-30T06:41:51.890Z,30.37
2017-09-30T06:42:54.430Z,29.17
2017-09-30T06:43:57.036Z,29.33
2017-09-30T06:44:59.491Z,29.25
2017-09-30T06:46:01.962Z,28.38
2017-09-30T06:47:05.240Z,28.92
2017-09-30T06:48:07.706Z,28.83
2017-09-30T06:49:10.334Z,29.23
2017-09-30T06:50:13.589Z,29.20
2017-09-30T06:51:16.054Z,28.33
2017-09-30T06:52:18.613Z,27.92
2017-09-30T06:53:21.068Z,28.20
2017-09-30T06:54:23.585Z,27.87
2017-09-30T06:55:26.047Z,26.87
2017-09-30T06:56:28.506Z,26.15
2017-09-30T06:57:31.026Z,24.87
2017-09-30T06:58:33.570Z,26.42
2017-09-30T06:59:36.062Z,27.25
2017-09-30T07:00:38.523Z,26.05
2017-09-30T07:01:41.021Z,25.62
2017-09-30T07:02:43.494Z,26.45
2017-09-30T07:03:45.967Z,26.05
2017-09-30T07:04:48.674Z,24.67
2017-09-30T07:05:51.143Z,24.05
2017-09-30T07:06:53.639Z,25.17
2017-09-30T07:07:56.178Z,25.92
2017-09-30T07:08:58.654Z,24.70
2017-09-30T07:10:01.204Z,23.48
2017-09-30T07:11:04.424Z,23.30
2017-09-30T07:12:07.696Z,22.75
2017-09-30T07:13:10.599Z,23.80
2017-09-30T07:14:13.838Z,23.92
2017-09-30T07:15:16.352Z,22.17
2017-09-30T07:16:18.921Z,22.90
2017-09-30T07:17:21.567Z,21.98
2017-09-30T07:18:24.031Z,22.20
2017-09-30T07:19:26.496Z,22.33
2017-09-30T07:20:29.804Z,22.75
2017-09-30T07:21:32.368Z,20.92
2017-09-30T07:22:34.907Z,21.37
2017-09-30T07:23:37.440Z,21.55
2017-09-30T07:24:39.902Z,20.77
2017-09-30T07:25:43.938Z,21.37
2017-09-30T07:26:46.408Z,21.25
2017-09-30T07:27:48.966Z,20.75
2017-09-30T07:28:51.460Z,20.12
2017-09-30T07:29:54.017Z,20.30
2017-09-30T07:30:56.539Z,20.30
2017-09-30T07:31:59.075Z,19.60
2017-09-30T07:33:01.606Z,19.60
2017-09-30T07:34:04.413Z,18.40
2017-09-30T07:35:07.646Z,19.30
2017-09-30T07:36:10.916Z,18.23
2017-09-30T07:37:13.479Z,18.35
2017-09-30T07:38:15.943Z,18.12
2017-09-30T07:39:19.195Z,18.90
2017-09-30T07:40:21.721Z,18.90
2017-09-30T07:41:24.260Z,18.75
2017-09-30T07:42:26.762Z,19.30
2017-09-30T07:43:30.100Z,17.80
2017-09-30T07:44:32.567Z,18.65
2017-09-30T07:45:35.067Z,17.45
2017-09-30T07:46:37.583Z,18.77
2017-09-30T07:47:40.824Z,17.95
2017-09-30T07:48:44.089Z,17.85
2017-09-30T07:49:47.318Z,17.58
2017-09-30T07:50:50.578Z,17.75
2017-09-30T07:51:53.087Z,17.65
2017-09-30T07:52:55.544Z,17.27
2017-09-30T07:53:58.022Z,17.85
2017-09-30T07:55:01.250Z,17.87
2017-09-30T07:56:03.722Z,17.33
2017-09-30T07:57:06.206Z,17.70
2017-09-30T07:58:09.472Z,17.42
2017-09-30T07:59:12.745Z,16.52
2017-09-30T08:00:15.258Z,17.00
2017-09-30T08:01:17.774Z,17.55
2017-09-30T08:02:20.251Z,16.77
2017-09-30T08:03:22.712Z,17.15
2017-09-30T08:04:26.063Z,16.60
2017-09-30T08:05:28.589Z,17.30
2017-09-30T08:06:31.855Z,16.27
2017-09-30T08:07:34.308Z,16.33
2017-09-30T08:08:36.887Z,15.35
2017-09-30T08:09:39.413Z,15.73
2017-09-30T08:10:41.886Z,15.93
2017-09-30T08:11:44.426Z,16.12
2017-09-30T08:12:47.703Z,15.05
2017-09-30T08:13:50.244Z,17.58
2017-09-30T08:14:52.753Z,15.55
2017-09-30T08:15:55.224Z,16.60
2017-09-30T08:16:57.814Z,15.95
2017-09-30T08:18:00.282Z,16.87
2017-09-30T08:19:02.791Z,15.32
2017-09-30T08:20:05.336Z,15.95
2017-09-30T08:21:07.826Z,15.60
2017-09-30T08:22:10.356Z,15.88
2017-09-30T08:23:12.828Z,15.07
2017-09-30T08:24:16.066Z,14.05
2017-09-30T08:25:18.632Z,15.52
2017-09-30T08:26:21.154Z,14.40
2017-09-30T08:27:23.652Z,14.85
2017-09-30T08:28:26.134Z,14.82
2017-09-30T08:29:28.594Z,15.05
2017-09-30T08:30:31.111Z,14.70
2017-09-30T08:31:34.198Z,16.00
2017-09-30T08:32:36.678Z,14.60
2017-09-30T08:33:39.246Z,14.02
2017-09-30T08:34:41.778Z,14.70
2017-09-30T08:35:44.343Z,14.40
2017-09-30T08:36:46.822Z,15.43
2017-09-30T08:37:49.323Z,15.48
2017-09-30T08:38:51.889Z,15.25
2017-09-30T08:39:55.738Z,15.70
2017-09-30T08:40:58.220Z,15.80
2017-09-30T08:42:00.681Z,14.35
2017-09-30T08:43:03.201Z,14.98
2017-09-30T08:44:06.551Z,14.65
2017-09-30T08:45:09.897Z,15.23
2017-09-30T08:46:13.150Z,15.27
2017-09-30T08:47:15.623Z,13.60
2017-09-30T08:48:18.211Z,14.40
2017-09-30T08:49:20.699Z,14.50
2017-09-30T08:50:23.944Z,14.35
2017-09-30T08:51:27.190Z,13.85
2017-09-30T08:52:30.457Z,15.52
2017-09-30T08:53:32.966Z,14.63
2017-09-30T08:54:35.458Z,15.40
2017-09-30T08:55:37.923Z,14.80
2017-09-30T08:56:40.401Z,15.07
2017-09-30T08:57:43.266Z,15.60
2017-09-30T08:58:46.524Z,14.77
2017-09-30T08:59:49.005Z,15.25
2017-09-30T09:00:51.587Z,15.38
2017-09-30T09:01:54.042Z,15.43
2017-09-30T09:02:56.534Z,14.43
2017-09-30T09:03:59.143Z,15.10
2017-09-30T09:05:02.383Z,15.02
2017-09-30T09:06:05.612Z,15.65
2017-09-30T09:07:08.115Z,15.60
2017-09-30T09:08:10.642Z,15.73
2017-09-30T09:09:13.215Z,15.00
2017-09-30T09:10:15.824Z,14.93
2017-09-30T09:11:19.154Z,15.75
2017-09-30T09:12:21.775Z,15.60
2017-09-30T09:13:25.763Z,15.82
2017-09-30T09:14:29.005Z,18.30
2017-09-30T09:15:32.271Z,15.15
2017-09-30T09:16:34.769Z,15.20
2017-09-30T09:17:37.999Z,14.80
2017-09-30T09:18:40.654Z,14.55
2017-09-30T09:19:43.109Z,15.20
2017-09-30T09:20:45.608Z,14.87
2017-09-30T09:21:48.822Z,16.30
2017-09-30T09:22:52.194Z,14.77
2017-09-30T09:23:54.724Z,15.00
2017-09-30T09:24:57.210Z,15.60
2017-09-30T09:26:00.479Z,15.02
2017-09-30T09:27:02.944Z,14.75
2017-09-30T09:28:05.524Z,14.63
2017-09-30T09:29:08.754Z,14.55
2017-09-30T09:30:12.002Z,14.98
2017-09-30T09:31:15.265Z,13.07
2017-09-30T09:32:17.743Z,13.80
2017-09-30T09:33:20.238Z,14.48
2017-09-30T09:34:22.704Z,14.13
2017-09-30T09:35:25.180Z,14.70
2017-09-30T09:36:27.689Z,14.25
2017-09-30T09:37:30.932Z,14.60
2017-09-30T09:38:33.439Z,14.57
2017-09-30T09:39:36.846Z,15.10
2017-09-30T09:40:39.294Z,14.48
2017-09-30T09:41:42.024Z,14.45
2017-09-30T09:42:45.273Z,14.25
2017-09-30T09:43:48.538Z,14.77
2017-09-30T09:44:51.080Z,14.75
2017-09-30T09:45:53.554Z,15.52
2017-09-30T09:46:56.018Z,13.98
2017-09-30T09:47:58.486Z,14.07
2017-09-30T09:49:00.954Z,13.55
2017-09-30T09:50:04.238Z,13.48
2017-09-30T09:51:06.706Z,13.75
2017-09-30T09:52:09.951Z,13.70
2017-09-30T09:53:13.176Z,14.05
2017-09-30T09:54:17.150Z,15.05
2017-09-30T09:55:20.397Z,13.60
2017-09-30T09:56:23.660Z,14.23
2017-09-30T09:57:26.147Z,14.13
2017-09-30T09:58:28.629Z,15.20
2017-09-30T09:59:31.143Z,13.75
2017-09-30T10:00:33.636Z,14.05
2017-09-30T10:01:36.871Z,13.68
2017-09-30T10:02:39.361Z,14.55
2017-09-30T10:03:41.919Z,14.10
2017-09-30T10:04:44.535Z,14.75
2017-09-30T10:05:47.029Z,14.10
2017-09-30T10:06:49.531Z,14.38
2017-09-30T10:07:52.014Z,14.63
2017-09-30T10:08:54.610Z,14.18
2017-09-30T10:09:57.081Z,13.85
2017-09-30T10:10:59.635Z,14.30
2017-09-30T10:12:02.159Z,13.68
2017-09-30T10:13:05.391Z,13.62
2017-09-30T10:14:08.677Z,12.90
2017-09-30T10:15:11.175Z,14.45
2017-09-30T10:16:13.680Z,13.57
2017-09-30T10:17:16.372Z,14.05
2017-09-30T10:18:18.964Z,14.38
2017-09-30T10:19:21.446Z,13.90
2017-09-30T10:20:24.009Z,14.65
2017-09-30T10:21:26.476Z,13.45
2017-09-30T10:22:28.986Z,13.25
2017-09-30T10:23:31.457Z,13.15
2017-09-30T10:24:34.692Z,13.52
2017-09-30T10:25:38.028Z,14.45
2017-09-30T10:26:40.486Z,14.32
2017-09-30T10:27:43.764Z,13.70
2017-09-30T10:28:46.266Z,12.70
2017-09-30T10:29:48.751Z,14.00
2017-09-30T10:30:51.319Z,13.68
2017-09-30T10:31:53.847Z,14.63
2017-09-30T10:32:56.330Z,14.23
2017-09-30T10:34:00.338Z,13.65
2017-09-30T10:35:02.821Z,13.80
2017-09-30T10:36:06.068Z,14.50
2017-09-30T10:37:08.522Z,14.68
2017-09-30T10:38:10.979Z,14.13
2017-09-30T10:39:14.082Z,13.88
2017-09-30T10:40:17.170Z,14.15
2017-09-30T10:41:19.659Z,13.50
2017-09-30T10:42:22.167Z,13.30
2017-09-30T10:43:24.752Z,13.98
2017-09-30T10:44:27.227Z,13.60
2017-09-30T10:45:29.759Z,13.27
2017-09-30T10:46:32.272Z,13.38
2017-09-30T10:47:34.740Z,13.55
2017-09-30T10:48:37.258Z,13.23
2017-09-30T10:49:39.746Z,13.52
2017-09-30T10:50:42.235Z,12.37
2017-09-30T10:51:44.779Z,12.82
2017-09-30T10:52:47.269Z,13.18
2017-09-30T10:53:49.755Z,12.77
2017-09-30T10:54:52.279Z,14.00
2017-09-30T10:55:54.777Z,14.40
2017-09-30T10:56:58.043Z,13.80
2017-09-30T10:58:00.518Z,13.73
2017-09-30T10:59:03.117Z,13.35
2017-09-30T11:00:05.574Z,12.90
2017-09-30T11:01:08.039Z,12.85
2017-09-30T11:02:11.283Z,12.93
2017-09-30T11:03:13.825Z,12.95
2017-09-30T11:04:16.337Z,13.38
2017-09-30T11:05:19.628Z,13.00
2017-09-30T11:06:22.103Z,12.68
2017-09-30T11:07:25.150Z,12.43
2017-09-30T11:08:27.716Z,12.60
2017-09-30T11:09:30.228Z,12.20
2017-09-30T11:10:32.712Z,13.13
2017-09-30T11:11:35.954Z,12.52
2017-09-30T11:12:39.698Z,12.20
2017-09-30T11:13:43.802Z,12.40
2017-09-30T11:14:46.315Z,11.43
2017-09-30T11:15:48.880Z,11.20
2017-09-30T11:16:51.454Z,12.35
2017-09-30T11:17:53.974Z,11.60
2017-09-30T11:18:57.225Z,11.68
2017-09-30T11:20:00.476Z,11.95
2017-09-30T11:21:02.958Z,12.05
2017-09-30T11:22:05.463Z,11.43
2017-09-30T11:23:07.925Z,12.57
2017-09-30T11:24:11.198Z,11.60
2017-09-30T11:25:13.670Z,12.35
2017-09-30T11:26:16.871Z,11.60
2017-09-30T11:27:19.529Z,11.40
2017-09-30T11:28:22.006Z,10.85
2017-09-30T11:29:24.538Z,10.90
2017-09-30T11:30:27.014Z,10.80
2017-09-30T11:31:29.503Z,12.20
2017-09-30T11:32:31.988Z,11.60
2017-09-30T11:33:35.232Z,10.80
2017-09-30T11:34:38.478Z,11.02
2017-09-30T11:35:41.726Z,11.20
2017-09-30T11:36:45.026Z,10.80
2017-09-30T11:37:47.487Z,11.12
2017-09-30T11:38:50.725Z,10.80
2017-09-30T11:39:54.098Z,10.68
2017-09-30T11:40:56.588Z,11.52
2017-09-30T11:41:59.139Z,11.30
2017-09-30T11:43:01.607Z,10.88
2017-09-30T11:44:04.095Z,11.90
2017-09-30T11:45:06.579Z,11.30
2017-09-30T11:46:09.081Z,11.05
2017-09-30T11:47:11.567Z,11.23
2017-09-30T11:48:14.096Z,11.05
2017-09-30T11:49:16.570Z,11.63
2017-09-30T11:50:19.254Z,11.05
2017-09-30T11:51:21.774Z,11.35
2017-09-30T11:52:24.320Z,11.38
2017-09-30T11:53:26.782Z,11.38
2017-09-30T11:54:29.243Z,11.50
2017-09-30T11:55:31.783Z,10.70
2017-09-30T11:56:34.263Z,10.75
2017-09-30T11:57:36.732Z,10.98
2017-09-30T11:58:40.278Z,11.20
2017-09-30T11:59:42.751Z,11.18
2017-09-30T12:00:45.245Z,10.35
2017-09-30T12:01:47.732Z,10.80
2017-09-30T12:02:51.134Z,11.27
2017-09-30T12:03:53.608Z,10.77
2017-09-30T12:04:56.886Z,10.30
2017-09-30T12:05:59.354Z,10.52
2017-09-30T12:07:01.830Z,10.90
2017-09-30T12:08:04.344Z,11.32
2017-09-30T12:09:06.808Z,10.27
2017-09-30T12:10:09.302Z,10.80
2017-09-30T12:11:11.820Z,11.12
2017-09-30T12:12:14.303Z,10.88
2017-09-30T12:13:16.863Z,10.65
2017-09-30T12:14:19.339Z,11.05
2017-09-30T12:15:21.862Z,10.48
2017-09-30T12:16:24.329Z,10.10
2017-09-30T12:17:26.894Z,10.55
2017-09-30T12:18:29.358Z,9.95
2017-09-30T12:19:32.580Z,10.20
2017-09-30T12:20:35.084Z,9.85
2017-09-30T12:21:39.078Z,9.75
2017-09-30T12:22:41.642Z,10.13
2017-09-30T12:23:44.135Z,10.10
2017-09-30T12:24:46.597Z,10.40
2017-09-30T12:25:49.058Z,9.90
2017-09-30T12:26:51.547Z,10.27
2017-09-30T12:27:54.031Z,10.00
2017-09-30T12:28:56.599Z,10.57
2017-09-30T12:29:59.119Z,10.05
2017-09-30T12:31:01.611Z,10.73
2017-09-30T12:32:04.075Z,10.10
2017-09-30T12:33:06.544Z,11.05
2017-09-30T12:34:09.008Z,9.68
2017-09-30T12:35:11.535Z,9.98
2017-09-30T12:36:14.770Z,9.80
2017-09-30T12:37:18.031Z,9.35
2017-09-30T12:38:20.497Z,10.27
2017-09-30T12:39:22.962Z,9.85
2017-09-30T12:40:26.223Z,9.63
2017-09-30T12:41:28.700Z,9.45
2017-09-30T12:42:31.151Z,9.68
2017-09-30T12:43:34.411Z,10.15
2017-09-30T12:44:36.885Z,10.50
2017-09-30T12:45:39.379Z,10.25
2017-09-30T12:46:41.907Z,9.70
2017-09-30T12:47:44.397Z,9.68
2017-09-30T12:48:47.652Z,9.80
2017-09-30T12:49:50.901Z,10.02
2017-09-30T12:50:53.410Z,9.80
2017-09-30T12:51:57.299Z,10.57
2017-09-30T12:52:59.780Z,10.00
2017-09-30T12:54:02.331Z,9.68
2017-09-30T12:55:04.838Z,9.68
2017-09-30T12:56:08.076Z,9.73
2017-09-30T12:57:10.533Z,9.63
2017-09-30T12:58:13.002Z,9.05
2017-09-30T12:59:15.483Z,9.82
2017-09-30T13:00:17.958Z,9.63
2017-09-30T13:01:20.420Z,8.95
2017-09-30T13:02:22.907Z,9.00
2017-09-30T13:03:25.391Z,9.60
2017-09-30T13:04:27.862Z,9.85
2017-09-30T13:05:30.347Z,9.60
2017-09-30T13:06:32.842Z,9.32
2017-09-30T13:07:36.118Z,9.25
2017-09-30T13:08:38.607Z,10.05
2017-09-30T13:09:41.865Z,9.45
2017-09-30T13:10:44.336Z,9.65
2017-09-30T13:11:46.908Z,8.90
2017-09-30T13:12:49.443Z,9.50
2017-09-30T13:13:51.906Z,9.10
2017-09-30T13:14:54.383Z,8.90
2017-09-30T13:15:57.623Z,9.48
2017-09-30T13:17:00.842Z,9.05
2017-09-30T13:18:04.094Z,8.85
2017-09-30T13:19:07.410Z,9.30
2017-09-30T13:20:09.898Z,9.40
2017-09-30T13:21:12.406Z,8.30
2017-09-30T13:22:14.862Z,8.80
2017-09-30T13:23:17.319Z,9.00
2017-09-30T13:24:20.001Z,8.25
2017-09-30T13:25:22.468Z,9.10
2017-09-30T13:26:24.964Z,8.68
2017-09-30T13:27:27.830Z,8.55
2017-09-30T13:28:30.304Z,8.88
2017-09-30T13:29:32.782Z,8.18
2017-09-30T13:30:35.340Z,8.68